createdAt,value
2018-04-16T00:02:00.933Z,13.67
2018-04-16T00:04:28.504Z,14.60
2018-04-16T00:06:56.112Z,13.70
2018-04-16T00:09:23.521Z,14.23
2018-04-16T00:11:50.985Z,14.03
2018-04-16T00:14:18.448Z,13.70
2018-04-16T00:16:46.712Z,13.43
2018-04-16T00:19:14.173Z,13.77
2018-04-16T00:21:41.725Z,13.87
2018-04-16T00:24:09.185Z,14.93
2018-04-16T00:26:36.663Z,14.17
2018-04-16T00:29:04.890Z,14.47
2018-04-16T00:31:37.989Z,12.87
2018-04-16T00:34:11.149Z,14.33
2018-04-16T00:36:44.277Z,13.23
2018-04-16T00:39:17.412Z,14.63
2018-04-16T00:41:51.229Z,14.50
2018-04-16T00:44:25.369Z,14.63
2018-04-16T00:46:58.609Z,15.13
2018-04-16T00:49:31.753Z,14.77
2018-04-16T00:52:05.034Z,13.90
2018-04-16T00:54:38.665Z,15.00
2018-04-16T00:57:11.973Z,15.53
2018-04-16T00:59:45.121Z,15.70
2018-04-16T01:02:18.185Z,15.63
2018-04-16T01:04:52.160Z,15.20
2018-04-16T01:07:25.277Z,15.70
2018-04-16T01:09:58.413Z,16.43
2018-04-16T01:12:43.561Z,14.70
2018-04-16T01:15:16.621Z,15.57
2018-04-16T01:17:49.869Z,15.53
2018-04-16T01:20:22.976Z,16.00
2018-04-16T01:22:56.192Z,16.53
2018-04-16T01:25:29.353Z,16.23
2018-04-16T01:28:02.545Z,16.03
2018-04-16T01:30:36.219Z,16.20
2018-04-16T01:33:10.641Z,14.47
2018-04-16T01:35:43.733Z,15.23
2018-04-16T01:38:16.848Z,16.33
2018-04-16T01:40:50.012Z,16.33
2018-04-16T01:43:24.110Z,16.17
2018-04-16T01:45:58.301Z,15.73
2018-04-16T01:48:31.566Z,15.90
2018-04-16T01:51:04.757Z,15.63
2018-04-16T01:53:53.461Z,14.60
2018-04-16T01:56:27.444Z,13.70
2018-04-16T01:59:00.738Z,15.53
2018-04-16T02:01:33.945Z,14.10
2018-04-16T02:04:07.097Z,14.30
2018-04-16T02:06:40.310Z,14.00
2018-04-16T02:09:13.573Z,14.13
2018-04-16T02:11:47.398Z,13.70
2018-04-16T02:14:20.662Z,13.10
2018-04-16T02:16:53.705Z,12.33
2018-04-16T02:19:26.993Z,12.67
2018-04-16T02:22:00.785Z,12.77
2018-04-16T02:24:33.909Z,11.57
2018-04-16T02:27:07.121Z,12.47
2018-04-16T02:29:41.138Z,12.07
2018-04-16T02:32:15.100Z,11.00
2018-04-16T02:34:48.389Z,11.67
2018-04-16T02:37:21.617Z,11.70
2018-04-16T02:39:54.887Z,11.23
2018-04-16T02:42:28.796Z,11.10
2018-04-16T02:45:02.089Z,10.80
2018-04-16T02:47:35.354Z,10.47
2018-04-16T02:50:08.489Z,10.80
2018-04-16T02:52:51.774Z,9.67
2018-04-16T02:55:24.971Z,8.77
2018-04-16T02:57:58.149Z,9.60
2018-04-16T03:00:31.360Z,10.23
2018-04-16T03:03:19.401Z,9.03
2018-04-16T03:05:52.590Z,9.70
2018-04-16T03:08:25.913Z,9.73
2018-04-16T03:10:58.989Z,10.37
2018-04-16T03:13:32.501Z,8.67
2018-04-16T03:16:05.794Z,9.30
2018-04-16T03:18:39.076Z,9.20
2018-04-16T03:21:12.296Z,8.50
2018-04-16T03:23:46.197Z,9.63
2018-04-16T03:26:19.476Z,8.70
2018-04-16T03:28:52.573Z,8.20
2018-04-16T03:31:25.765Z,8.20
2018-04-16T03:33:59.681Z,8.17
2018-04-16T03:36:32.985Z,8.00
2018-04-16T03:39:06.265Z,7.93
2018-04-16T03:41:39.453Z,7.20
2018-04-16T03:44:13.280Z,6.90
2018-04-16T03:46:46.492Z,7.27
2018-04-16T03:49:19.686Z,6.03
2018-04-16T03:51:52.948Z,6.47
2018-04-16T03:54:20.957Z,7.20
2018-04-16T03:56:49.179Z,6.07
2018-04-16T03:59:16.655Z,5.60
2018-04-16T04:01:44.135Z,5.67
2018-04-16T04:04:11.689Z,5.67
2018-04-16T04:06:39.249Z,5.60
2018-04-16T04:09:06.744Z,5.70
2018-04-16T04:11:34.193Z,5.20
2018-04-16T04:14:02.438Z,4.63
2018-04-16T04:16:29.901Z,4.73
2018-04-16T04:18:57.377Z,4.93
2018-04-16T04:21:25.637Z,5.13
2018-04-16T04:24:05.093Z,4.70
2018-04-16T04:26:44.517Z,4.80
2018-04-16T04:29:23.844Z,5.60
2018-04-16T04:31:51.304Z,4.20
2018-04-16T04:34:18.869Z,4.80
2018-04-16T04:36:46.324Z,4.60
2018-04-16T04:39:13.791Z,4.47
2018-04-16T04:41:41.248Z,4.80
2018-04-16T04:44:08.708Z,4.10
2018-04-16T04:46:36.265Z,4.00
2018-04-16T04:49:04.540Z,3.93
2018-04-16T04:51:32.005Z,4.37
2018-04-16T04:53:59.548Z,3.73
2018-04-16T04:56:27.012Z,4.73
2018-04-16T04:58:54.493Z,4.43
2018-04-16T05:01:22.724Z,4.37
2018-04-16T05:03:50.185Z,4.70
2018-04-16T05:06:17.645Z,4.23
2018-04-16T05:08:45.105Z,4.33
2018-04-16T05:11:12.573Z,4.07
2018-04-16T05:13:40.037Z,4.50
2018-04-16T05:16:07.493Z,4.80
2018-04-16T05:18:34.953Z,4.37
2018-04-16T05:21:02.508Z,4.40
2018-04-16T05:23:29.968Z,4.50
2018-04-16T05:25:57.528Z,4.20
2018-04-16T05:28:25.000Z,5.13
2018-04-16T05:30:52.484Z,5.20
2018-04-16T05:33:20.717Z,5.33
2018-04-16T05:35:48.286Z,5.17
2018-04-16T05:38:15.752Z,5.23
2018-04-16T05:40:43.308Z,5.03
2018-04-16T05:43:10.780Z,6.13
2018-04-16T05:45:38.233Z,7.10
2018-04-16T05:48:05.772Z,5.70
2018-04-16T05:50:33.240Z,6.13
2018-04-16T05:53:00.797Z,6.27
2018-04-16T05:55:28.360Z,7.40
2018-04-16T05:57:55.824Z,6.70
2018-04-16T06:00:23.383Z,6.90
2018-04-16T06:02:50.836Z,7.23
2018-04-16T06:05:18.397Z,6.30
2018-04-16T06:07:45.865Z,7.57
2018-04-16T06:10:13.328Z,7.37
2018-04-16T06:12:41.577Z,7.87
2018-04-16T06:15:09.033Z,6.70
2018-04-16T06:17:36.497Z,7.47
2018-04-16T06:20:03.961Z,8.30
2018-04-16T06:22:32.253Z,7.83
2018-04-16T06:24:59.708Z,8.63
2018-04-16T06:27:27.304Z,10.30
2018-04-16T06:29:54.728Z,10.17
2018-04-16T06:32:22.189Z,9.97
2018-04-16T06:34:49.736Z,9.77
2018-04-16T06:37:17.294Z,9.67
2018-04-16T06:39:44.768Z,10.30
2018-04-16T06:42:12.236Z,11.13
2018-04-16T06:44:40.476Z,9.97
2018-04-16T06:47:07.946Z,11.73
2018-04-16T06:49:35.414Z,11.83
2018-04-16T06:52:02.969Z,12.50
2018-04-16T06:54:30.428Z,12.23
2018-04-16T06:56:57.896Z,12.77
2018-04-16T06:59:25.463Z,13.57
2018-04-16T07:01:53.764Z,13.70
2018-04-16T07:04:21.204Z,14.80
2018-04-16T07:06:49.462Z,14.70
2018-04-16T07:09:16.967Z,14.80
2018-04-16T07:11:44.481Z,14.60
2018-04-16T07:14:12.089Z,14.77
2018-04-16T07:16:39.554Z,16.47
2018-04-16T07:19:07.017Z,14.70
2018-04-16T07:21:34.500Z,15.27
2018-04-16T07:24:01.975Z,14.67
2018-04-16T07:26:29.522Z,15.83
2018-04-16T07:28:56.997Z,16.70
2018-04-16T07:31:24.466Z,16.43
2018-04-16T07:33:52.720Z,16.23
2018-04-16T07:36:20.278Z,17.97
2018-04-16T07:38:47.837Z,17.80
2018-04-16T07:41:15.456Z,18.43
2018-04-16T07:43:43.003Z,16.97
2018-04-16T07:46:10.430Z,17.43
2018-04-16T07:48:37.977Z,17.00
2018-04-16T07:51:05.452Z,16.93
2018-04-16T07:53:33.697Z,17.57
2018-04-16T07:56:01.168Z,18.50
2018-04-16T07:58:28.737Z,14.50
2018-04-16T08:00:56.197Z,14.33
2018-04-16T08:03:23.673Z,15.67
2018-04-16T08:05:51.933Z,16.00
2018-04-16T08:08:19.400Z,17.27
2018-04-16T08:10:47.651Z,15.90
2018-04-16T08:13:15.116Z,16.97
2018-04-16T08:15:42.593Z,16.77
2018-04-16T08:18:10.915Z,16.47
2018-04-16T08:20:38.376Z,14.83
2018-04-16T08:23:05.838Z,14.63
2018-04-16T08:25:33.328Z,18.00
2018-04-16T08:28:00.797Z,17.10
2018-04-16T08:30:28.344Z,15.93
2018-04-16T08:32:55.910Z,14.50
2018-04-16T08:35:24.133Z,17.60
2018-04-16T08:37:51.646Z,17.90
2018-04-16T08:40:19.109Z,17.93
2018-04-16T08:42:47.372Z,16.33
2018-04-16T08:45:14.941Z,17.77
2018-04-16T08:47:42.404Z,17.93
2018-04-16T08:50:09.873Z,17.23
2018-04-16T08:52:38.165Z,16.97
2018-04-16T08:55:05.592Z,15.27
2018-04-16T08:57:33.149Z,17.30
2018-04-16T09:00:00.613Z,16.47
2018-04-16T09:02:28.076Z,15.67
2018-04-16T09:04:55.548Z,15.67
2018-04-16T09:07:23.801Z,16.80
2018-04-16T09:09:51.281Z,15.23
2018-04-16T09:12:19.517Z,15.00
2018-04-16T09:14:46.980Z,16.00
2018-04-16T09:17:14.553Z,14.70
2018-04-16T09:19:42.173Z,16.00
2018-04-16T09:22:09.676Z,16.07
2018-04-16T09:24:37.240Z,16.03
2018-04-16T09:27:04.793Z,15.47
2018-04-16T09:29:32.261Z,16.43
2018-04-16T09:31:59.814Z,16.13
2018-04-16T09:34:27.280Z,16.20
2018-04-16T09:36:54.837Z,14.80
2018-04-16T09:39:22.301Z,16.17
2018-04-16T09:41:49.765Z,15.23
2018-04-16T09:44:17.267Z,16.97
2018-04-16T09:46:44.729Z,16.23
2018-04-16T09:49:12.284Z,17.40
2018-04-16T09:51:39.744Z,16.93
2018-04-16T09:54:07.302Z,16.10
2018-04-16T09:56:34.805Z,16.63
2018-04-16T09:59:02.366Z,16.37
2018-04-16T10:01:29.841Z,15.97
2018-04-16T10:03:58.073Z,16.30
2018-04-16T10:06:25.536Z,15.93
2018-04-16T10:08:53.002Z,16.07
2018-04-16T10:11:20.481Z,15.30
2018-04-16T10:13:48.033Z,16.10
2018-04-16T10:16:15.509Z,15.60
2018-04-16T10:18:43.737Z,15.13
2018-04-16T10:21:11.224Z,15.20
2018-04-16T10:23:38.788Z,14.63
2018-04-16T10:26:06.341Z,14.87
2018-04-16T10:28:33.808Z,13.67
2018-04-16T10:31:01.274Z,13.10
2018-04-16T10:33:29.504Z,12.63
2018-04-16T10:35:57.000Z,13.07
2018-04-16T10:38:24.562Z,11.90
2018-04-16T10:40:52.796Z,12.53
2018-04-16T10:43:20.293Z,12.00
2018-04-16T10:45:47.773Z,11.23
2018-04-16T10:48:16.021Z,11.03
2018-04-16T10:50:43.589Z,10.97
2018-04-16T10:53:11.070Z,10.83
2018-04-16T10:55:39.339Z,12.40
2018-04-16T10:58:06.809Z,10.90
2018-04-16T11:00:35.063Z,10.10
2018-04-16T11:03:02.542Z,10.97
2018-04-16T11:05:30.777Z,10.87
2018-04-16T11:07:58.240Z,10.73
2018-04-16T11:10:25.805Z,10.07
2018-04-16T11:12:53.370Z,9.83
2018-04-16T11:15:20.829Z,10.07
2018-04-16T11:17:48.393Z,9.43
2018-04-16T11:20:15.944Z,10.37
2018-04-16T11:22:43.409Z,10.03
2018-04-16T11:25:10.965Z,9.17
2018-04-16T11:27:38.441Z,8.80
2018-04-16T11:30:05.943Z,8.83
2018-04-16T11:32:33.404Z,9.00
2018-04-16T11:35:00.868Z,11.10
2018-04-16T11:37:28.353Z,10.77
2018-04-16T11:39:55.822Z,12.13
2018-04-16T11:42:23.335Z,10.30
2018-04-16T11:44:50.840Z,8.97
2018-04-16T11:47:18.397Z,8.70
2018-04-16T11:49:45.857Z,9.90
2018-04-16T11:52:13.475Z,10.23
2018-04-16T11:54:40.925Z,9.83
2018-04-16T11:57:08.385Z,9.37
2018-04-16T11:59:35.893Z,11.40
2018-04-16T12:02:03.452Z,11.43
2018-04-16T12:04:30.961Z,15.87
2018-04-16T12:06:59.189Z,11.20
2018-04-16T12:09:26.759Z,10.60
2018-04-16T12:11:54.308Z,11.73
2018-04-16T12:14:21.880Z,11.37
2018-04-16T12:16:49.433Z,11.83
2018-04-16T12:19:16.909Z,11.50
2018-04-16T12:21:44.448Z,12.77
2018-04-16T12:24:11.913Z,12.27
2018-04-16T12:26:39.465Z,12.07
2018-04-16T12:29:06.947Z,11.40
2018-04-16T12:31:34.402Z,12.13
2018-04-16T12:34:01.868Z,12.37
2018-04-16T12:36:30.099Z,12.53
2018-04-16T12:38:57.605Z,12.03
2018-04-16T12:41:25.864Z,12.33
2018-04-16T12:43:53.321Z,13.37
2018-04-16T12:46:20.796Z,12.60
2018-04-16T12:48:49.041Z,10.47
2018-04-16T12:51:16.502Z,12.17
2018-04-16T12:53:43.980Z,10.23
2018-04-16T12:56:12.243Z,10.93
2018-04-16T12:58:39.797Z,12.10
2018-04-16T13:01:07.266Z,11.93
2018-04-16T13:03:34.824Z,12.20
2018-04-16T13:06:03.057Z,13.00
2018-04-16T13:08:30.520Z,13.10
2018-04-16T13:10:58.009Z,12.53
2018-04-16T13:13:25.477Z,13.77
2018-04-16T13:15:53.717Z,13.77
2018-04-16T13:18:21.181Z,13.30
2018-04-16T13:20:48.721Z,12.83
2018-04-16T13:23:16.181Z,14.23
2018-04-16T13:25:43.680Z,16.87
2018-04-16T13:28:11.165Z,16.93
2018-04-16T13:30:39.400Z,16.50
2018-04-16T13:33:06.876Z,16.27
2018-04-16T13:35:34.433Z,13.73
2018-04-16T13:38:01.994Z,13.53
2018-04-16T13:40:29.553Z,14.10
2018-04-16T13:42:57.148Z,13.30
2018-04-16T13:45:24.679Z,14.87
2018-04-16T13:47:52.232Z,14.10
2018-04-16T13:50:19.701Z,14.20
2018-04-16T13:52:47.209Z,13.77
2018-04-16T13:55:14.709Z,13.40
2018-04-16T13:57:42.180Z,13.03
2018-04-16T14:00:09.649Z,12.33
2018-04-16T14:02:37.888Z,12.47
2018-04-16T14:05:05.464Z,10.80
2018-04-16T14:07:33.029Z,9.83
2018-04-16T14:10:00.494Z,8.47
2018-04-16T14:12:27.964Z,8.40
2018-04-16T14:14:56.201Z,8.47
2018-04-16T14:17:23.678Z,8.03
2018-04-16T14:19:51.905Z,7.77
2018-04-16T14:22:19.373Z,7.83
2018-04-16T14:24:46.870Z,7.27
2018-04-16T14:27:14.418Z,7.80
2018-04-16T14:29:41.886Z,6.90
2018-04-16T14:32:09.340Z,7.63
2018-04-16T14:34:36.904Z,7.03
2018-04-16T14:37:04.365Z,7.67
2018-04-16T14:39:32.643Z,7.40
2018-04-16T14:42:00.105Z,7.53
2018-04-16T14:44:27.564Z,7.23
2018-04-16T14:46:55.034Z,7.07
2018-04-16T14:49:23.294Z,6.93
2018-04-16T14:51:50.752Z,6.97
2018-04-16T14:54:18.213Z,6.30
2018-04-16T14:56:45.786Z,7.67
2018-04-16T14:59:13.238Z,7.33
2018-04-16T15:01:40.692Z,8.00
2018-04-16T15:04:08.157Z,9.37
2018-04-16T15:06:35.620Z,10.37
2018-04-16T15:09:03.849Z,8.70
2018-04-16T15:11:31.328Z,8.33
2018-04-16T15:13:58.955Z,7.83
2018-04-16T15:16:26.414Z,9.30
2018-04-16T15:18:53.886Z,10.57
2018-04-16T15:21:21.362Z,16.83
2018-04-16T15:23:48.821Z,14.30
2018-04-16T15:26:16.285Z,19.90
2018-04-16T15:28:43.848Z,16.97
2018-04-16T15:31:11.327Z,12.23
2018-04-16T15:33:39.564Z,10.27
2018-04-16T15:36:07.031Z,9.67
2018-04-16T15:38:34.601Z,9.70
2018-04-16T15:41:02.173Z,8.23
2018-04-16T15:43:29.621Z,8.27
2018-04-16T15:45:57.093Z,9.73
2018-04-16T15:48:25.357Z,7.77
2018-04-16T15:50:52.797Z,7.17
2018-04-16T15:53:20.364Z,17.90
2018-04-16T15:55:47.933Z,16.30
2018-04-16T15:58:15.416Z,28.73
2018-04-16T16:00:43.683Z,22.17
2018-04-16T16:03:11.229Z,30.93
2018-04-16T16:05:38.794Z,11.57
2018-04-16T16:08:07.056Z,9.47
2018-04-16T16:10:34.624Z,11.07
2018-04-16T16:13:02.097Z,9.47
2018-04-16T16:15:29.653Z,9.00
2018-04-16T16:17:57.203Z,8.03
2018-04-16T16:20:24.766Z,8.43
2018-04-16T16:22:52.221Z,8.23
2018-04-16T16:25:19.697Z,8.10
2018-04-16T16:27:47.153Z,8.07
2018-04-16T16:30:14.626Z,8.57
2018-04-16T16:32:42.856Z,8.47
2018-04-16T16:35:10.358Z,8.43
2018-04-16T16:37:38.608Z,9.00
2018-04-16T16:40:06.169Z,8.23
2018-04-16T16:42:33.636Z,9.00
2018-04-16T16:45:01.098Z,8.90
2018-04-16T16:47:29.339Z,8.53
2018-04-16T16:49:56.803Z,9.00
2018-04-16T16:52:24.264Z,8.40
2018-04-16T16:54:51.729Z,9.30
2018-04-16T16:57:19.296Z,8.60
2018-04-16T16:59:46.771Z,9.33
2018-04-16T17:02:14.313Z,9.50
2018-04-16T17:04:41.881Z,9.13
2018-04-16T17:07:09.447Z,9.57
2018-04-16T17:09:37.023Z,8.43
2018-04-16T17:12:05.275Z,9.73
2018-04-16T17:14:32.735Z,8.87
2018-04-16T17:17:00.297Z,8.60
2018-04-16T17:19:27.757Z,8.60
2018-04-16T17:21:55.309Z,8.80
2018-04-16T17:24:22.770Z,9.60
2018-04-16T17:26:50.242Z,14.27
2018-04-16T17:29:17.709Z,17.00
2018-04-16T17:31:45.950Z,25.10
2018-04-16T17:34:13.417Z,20.97
2018-04-16T17:36:41.652Z,21.23
2018-04-16T17:39:09.161Z,13.33
2018-04-16T17:41:36.717Z,16.30
2018-04-16T17:44:04.277Z,12.43
2018-04-16T17:46:31.853Z,10.30
2018-04-16T17:48:59.324Z,9.23
2018-04-16T17:51:27.544Z,9.80
2018-04-16T17:53:55.008Z,9.20
2018-04-16T17:56:22.546Z,9.10
2018-04-16T17:58:50.001Z,10.27
2018-04-16T18:01:17.564Z,10.97
2018-04-16T18:03:45.026Z,23.90
2018-04-16T18:06:12.505Z,26.57
2018-04-16T18:08:40.010Z,24.73
2018-04-16T18:11:08.250Z,26.60
2018-04-16T18:13:36.657Z,23.53
2018-04-16T18:16:04.121Z,22.53
2018-04-16T18:18:32.360Z,14.40
2018-04-16T18:20:59.936Z,14.60
2018-04-16T18:23:27.554Z,15.87
2018-04-16T18:25:55.017Z,13.50
2018-04-16T18:28:22.571Z,11.53
2018-04-16T18:30:50.077Z,12.30
2018-04-16T18:33:17.589Z,15.60
2018-04-16T18:35:45.053Z,12.80
2018-04-16T18:38:12.553Z,14.27
2018-04-16T18:40:40.791Z,13.40
2018-04-16T18:43:08.254Z,13.83
2018-04-16T18:45:35.722Z,12.17
2018-04-16T18:48:03.245Z,10.63
2018-04-16T18:50:31.466Z,10.37
2018-04-16T18:52:58.930Z,9.03
2018-04-16T18:55:26.395Z,9.77
2018-04-16T18:57:54.674Z,9.20
2018-04-16T19:00:22.233Z,8.87
2018-04-16T19:02:49.689Z,8.67
2018-04-16T19:05:17.179Z,8.43
2018-04-16T19:07:45.416Z,7.67
2018-04-16T19:10:12.869Z,7.37
2018-04-16T19:12:40.374Z,7.67
2018-04-16T19:15:07.961Z,6.87
2018-04-16T19:20:35.130Z,6.10
2018-04-16T19:23:02.644Z,5.67
2018-04-16T19:25:30.166Z,6.23
2018-04-16T19:28:03.265Z,5.83
2018-04-16T19:30:30.745Z,6.70
2018-04-16T19:33:03.889Z,5.57
2018-04-16T19:35:31.367Z,6.37
2018-04-16T19:37:59.234Z,6.23
2018-04-16T19:40:26.717Z,6.23
2018-04-16T19:42:54.181Z,6.37
2018-04-16T19:45:21.644Z,6.13
2018-04-16T19:47:49.115Z,5.60
2018-04-16T19:50:16.598Z,6.17
2018-04-16T19:52:44.094Z,6.67
2018-04-16T19:55:11.586Z,8.10
2018-04-16T19:57:45.514Z,7.93
2018-04-16T20:00:13.749Z,6.93
2018-04-16T20:02:47.009Z,7.10
2018-04-16T20:05:14.478Z,6.93
2018-04-16T20:07:42.177Z,8.10
2018-04-16T20:10:09.673Z,12.43
2018-04-16T20:12:37.185Z,24.07
2018-04-16T20:15:04.657Z,22.23
2018-04-16T20:17:32.209Z,15.70
2018-04-16T20:19:59.765Z,16.60
2018-04-16T20:22:27.238Z,12.00
2018-04-16T20:24:54.698Z,9.83
2018-04-16T20:27:22.252Z,9.83
2018-04-16T20:29:49.712Z,9.30
2018-04-16T20:32:17.172Z,9.47
2018-04-16T20:34:44.640Z,9.07
2018-04-16T20:37:12.877Z,19.03
2018-04-16T20:39:40.340Z,15.47
2018-04-16T20:42:07.918Z,10.83
2018-04-16T20:44:35.381Z,9.50
2018-04-16T20:47:02.991Z,9.43
2018-04-16T20:49:31.317Z,10.20
2018-04-16T20:51:58.791Z,10.50
2018-04-16T20:54:27.033Z,19.87
2018-04-16T20:56:54.529Z,19.93
2018-04-16T20:59:22.757Z,19.83
2018-04-16T21:01:50.222Z,13.40
2018-04-16T21:04:17.700Z,9.83
2018-04-16T21:06:45.346Z,10.00
2018-04-16T21:09:12.905Z,10.73
2018-04-16T21:11:40.450Z,10.23
2018-04-16T21:14:07.999Z,9.70
2018-04-16T21:16:35.545Z,10.03
2018-04-16T21:19:03.137Z,9.90
2018-04-16T21:21:30.681Z,10.03
2018-04-16T21:23:58.262Z,9.90
2018-04-16T21:26:25.906Z,10.43
2018-04-16T21:28:53.505Z,10.57
2018-04-16T21:31:21.049Z,10.40
2018-04-16T21:33:48.597Z,10.43
2018-04-16T21:36:16.169Z,10.63
2018-04-16T21:38:43.726Z,11.37
2018-04-16T21:41:11.481Z,11.33
2018-04-16T21:43:39.054Z,11.43
2018-04-16T21:46:06.602Z,10.53
2018-04-16T21:48:34.147Z,9.60
2018-04-16T21:51:01.695Z,9.63
2018-04-16T21:53:29.242Z,9.53
2018-04-16T21:55:57.557Z,9.90
2018-04-16T21:58:25.112Z,10.43
2018-04-16T22:00:52.668Z,9.97
2018-04-16T22:03:20.218Z,10.73
2018-04-16T22:05:47.761Z,10.27
2018-04-16T22:08:16.070Z,10.70
2018-04-16T22:10:43.629Z,11.20
2018-04-16T22:13:12.133Z,10.30
2018-04-16T22:15:39.699Z,11.70
2018-04-16T22:18:07.269Z,10.37
2018-04-16T22:20:34.838Z,10.43
2018-04-16T22:23:02.393Z,10.07
2018-04-16T22:25:29.937Z,10.90
2018-04-16T22:27:57.487Z,10.27
2018-04-16T22:30:25.037Z,10.30
2018-04-16T22:32:52.581Z,10.00
2018-04-16T22:35:20.121Z,9.70
2018-04-16T22:37:48.427Z,11.23
2018-04-16T22:40:15.974Z,10.03
2018-04-16T22:42:43.527Z,10.70
2018-04-16T22:45:11.838Z,10.93
2018-04-16T22:47:39.427Z,10.83
2018-04-16T22:50:06.975Z,10.80
2018-04-16T22:52:34.521Z,10.47
2018-04-16T22:55:02.070Z,10.50
2018-04-16T22:57:29.531Z,11.00
2018-04-16T22:59:56.996Z,10.77
2018-04-16T23:02:24.543Z,11.37
2018-04-16T23:04:52.049Z,10.80
2018-04-16T23:07:19.529Z,10.73
2018-04-16T23:09:47.760Z,11.40
2018-04-16T23:12:15.225Z,10.47
2018-04-16T23:14:42.703Z,11.13
2018-04-16T23:17:10.256Z,10.33
2018-04-16T23:19:37.739Z,10.40
2018-04-16T23:22:05.980Z,10.07
2018-04-16T23:24:33.554Z,10.50
2018-04-16T23:27:01.128Z,10.10
2018-04-16T23:29:28.677Z,11.10
2018-04-16T23:31:56.149Z,10.00
2018-04-16T23:34:24.393Z,10.37
2018-04-16T23:36:51.848Z,9.83
2018-04-16T23:39:19.317Z,9.97
2018-04-16T23:41:46.881Z,12.13
2018-04-16T23:44:14.347Z,10.10
2018-04-16T23:46:41.913Z,10.60
2018-04-16T23:49:09.469Z,10.60
2018-04-16T23:51:37.708Z,10.33
2018-04-16T23:54:05.192Z,10.73
2018-04-16T23:56:32.649Z,10.27
2018-04-16T23:59:00.125Z,11.10
